sensor_id;sensor_type;location;lat;lon;timestamp;pressure;altitude;pressure_sealevel;temperature;humidity
38806;BME280;25635;51.146;17.162;2022-09-09T00:02:19;99715.16;;;16.43;89.52
38806;BME280;25635;51.146;17.162;2022-09-09T00:07:58;99724.16;;;16.37;90.27
38806;BME280;25635;51.146;17.162;2022-09-09T00:10:32;99720.26;;;16.35;90.62
38806;BME280;25635;51.146;17.162;2022-09-09T00:16:21;99727.45;;;16.32;90.18
38806;BME280;25635;51.146;17.162;2022-09-09T00:19:21;99724.92;;;16.29;89.90
38806;BME280;25635;51.146;17.162;2022-09-09T00:25:12;99725.81;;;16.17;90.19
38806;BME280;25635;51.146;17.162;2022-09-09T00:27:48;99723.79;;;16.12;91.05
38806;BME280;25635;51.146;17.162;2022-09-09T00:56:14;99730.11;;;15.59;89.15
38806;BME280;25635;51.146;17.162;2022-09-09T00:59:08;99727.83;;;15.50;89.71
38806;BME280;25635;51.146;17.162;2022-09-09T01:01:48;99729.31;;;15.46;90.34
38806;BME280;25635;51.146;17.162;2022-09-09T01:04:17;99725.16;;;15.38;90.44
38806;BME280;25635;51.146;17.162;2022-09-09T01:06:49;99733.02;;;15.40;90.64
38806;BME280;25635;51.146;17.162;2022-09-09T01:09:38;99729.16;;;15.37;90.64
38806;BME280;25635;51.146;17.162;2022-09-09T01:15:17;99734.59;;;15.32;90.91
38806;BME280;25635;51.146;17.162;2022-09-09T01:17:48;99735.61;;;15.28;90.87
38806;BME280;25635;51.146;17.162;2022-09-09T01:20:47;99731.87;;;15.22;90.91
38806;BME280;25635;51.146;17.162;2022-09-09T01:23:26;99736.45;;;15.17;90.45
38806;BME280;25635;51.146;17.162;2022-09-09T01:26:13;99736.66;;;15.11;90.53
38806;BME280;25635;51.146;17.162;2022-09-09T01:28:48;99744.55;;;15.11;91.02
38806;BME280;25635;51.146;17.162;2022-09-09T01:31:18;99741.97;;;15.09;91.56
38806;BME280;25635;51.146;17.162;2022-09-09T01:33:47;99749.48;;;15.08;91.68
38806;BME280;25635;51.146;17.162;2022-09-09T01:36:18;99746.38;;;15.09;92.05
38806;BME280;25635;51.146;17.162;2022-09-09T01:38:52;99746.42;;;15.07;91.67
38806;BME280;25635;51.146;17.162;2022-09-09T01:41:18;99747.86;;;15.04;91.54
38806;BME280;25635;51.146;17.162;2022-09-09T01:43:45;99748.41;;;15.00;91.51
38806;BME280;25635;51.146;17.162;2022-09-09T01:46:12;99749.80;;;14.97;91.82
38806;BME280;25635;51.146;17.162;2022-09-09T01:55:01;99756.20;;;14.90;91.34
38806;BME280;25635;51.146;17.162;2022-09-09T01:57:34;99751.17;;;14.83;91.76
38806;BME280;25635;51.146;17.162;2022-09-09T02:00:13;99751.17;;;14.83;91.76
38806;BME280;25635;51.146;17.162;2022-09-09T02:03:19;99760.04;;;14.80;92.55
38806;BME280;25635;51.146;17.162;2022-09-09T02:05:49;99760.04;;;14.80;92.55
38806;BME280;25635;51.146;17.162;2022-09-09T02:11:17;99757.60;;;14.74;92.22
38806;BME280;25635;51.146;17.162;2022-09-09T02:13:47;99763.88;;;14.70;92.24
38806;BME280;25635;51.146;17.162;2022-09-09T02:16:28;99768.67;;;14.70;92.68
38806;BME280;25635;51.146;17.162;2022-09-09T02:21:47;99771.77;;;14.70;92.75
38806;BME280;25635;51.146;17.162;2022-09-09T02:24:15;99777.11;;;14.68;92.47
38806;BME280;25635;51.146;17.162;2022-09-09T02:26:44;99773.20;;;14.67;92.79
38806;BME280;25635;51.146;17.162;2022-09-09T02:29:15;99777.61;;;14.66;92.41
38806;BME280;25635;51.146;17.162;2022-09-09T02:31:45;99780.78;;;14.63;92.38
38806;BME280;25635;51.146;17.162;2022-09-09T02:34:14;99779.11;;;14.60;92.41
38806;BME280;25635;51.146;17.162;2022-09-09T02:36:44;99776.06;;;14.59;93.22
38806;BME280;25635;51.146;17.162;2022-09-09T02:39:13;99776.88;;;14.61;93.56
38806;BME280;25635;51.146;17.162;2022-09-09T02:41:41;99769.13;;;14.55;93.49
38806;BME280;25635;51.146;17.162;2022-09-09T02:44:23;99778.61;;;14.62;93.31
38806;BME280;25635;51.146;17.162;2022-09-09T02:52:44;99781.90;;;14.54;92.88
38806;BME280;25635;51.146;17.162;2022-09-09T02:55:23;99782.94;;;14.48;92.85
38806;BME280;25635;51.146;17.162;2022-09-09T02:57:49;99783.94;;;14.44;93.09
38806;BME280;25635;51.146;17.162;2022-09-09T03:00:23;99795.96;;;14.38;92.71
38806;BME280;25635;51.146;17.162;2022-09-09T03:02:52;99790.38;;;14.34;92.61
38806;BME280;25635;51.146;17.162;2022-09-09T03:05:20;99790.38;;;14.34;92.61
38806;BME280;25635;51.146;17.162;2022-09-09T03:07:47;99791.23;;;14.34;92.26
38806;BME280;25635;51.146;17.162;2022-09-09T03:10:15;99797.95;;;14.30;92.22
38806;BME280;25635;51.146;17.162;2022-09-09T03:12:43;99797.95;;;14.30;92.22
38806;BME280;25635;51.146;17.162;2022-09-09T03:15:09;99803.00;;;14.23;92.40
38806;BME280;25635;51.146;17.162;2022-09-09T03:17:36;99803.00;;;14.23;92.40
38806;BME280;25635;51.146;17.162;2022-09-09T03:20:04;99796.11;;;14.18;92.29
38806;BME280;25635;51.146;17.162;2022-09-09T03:22:31;99803.22;;;14.15;92.33
38806;BME280;25635;51.146;17.162;2022-09-09T03:24:57;99811.60;;;14.13;91.94
38806;BME280;25635;51.146;17.162;2022-09-09T03:27:24;99805.73;;;14.03;91.43
38806;BME280;25635;51.146;17.162;2022-09-09T03:29:50;99805.73;;;14.03;91.43
38806;BME280;25635;51.146;17.162;2022-09-09T03:32:18;99804.52;;;14.00;92.13
38806;BME280;25635;51.146;17.162;2022-09-09T03:34:45;99811.48;;;14.01;92.72
38806;BME280;25635;51.146;17.162;2022-09-09T03:37:12;99807.19;;;13.98;92.79
38806;BME280;25635;51.146;17.162;2022-09-09T03:39:38;99812.08;;;13.96;92.60
38806;BME280;25635;51.146;17.162;2022-09-09T03:42:05;99810.44;;;13.92;92.73
38806;BME280;25635;51.146;17.162;2022-09-09T03:44:31;99815.70;;;13.92;93.39
38806;BME280;25635;51.146;17.162;2022-09-09T03:46:59;99819.64;;;13.92;93.31
38806;BME280;25635;51.146;17.162;2022-09-09T03:49:28;99821.62;;;13.84;92.24
38806;BME280;25635;51.146;17.162;2022-09-09T03:51:56;99820.83;;;13.80;93.00
38806;BME280;25635;51.146;17.162;2022-09-09T03:54:24;99820.47;;;13.77;93.12
38806;BME280;25635;51.146;17.162;2022-09-09T03:56:50;99815.31;;;13.74;92.88
38806;BME280;25635;51.146;17.162;2022-09-09T03:59:17;99821.09;;;13.71;92.79
38806;BME280;25635;51.146;17.162;2022-09-09T04:01:43;99816.36;;;13.67;92.79
38806;BME280;25635;51.146;17.162;2022-09-09T04:04:11;99821.25;;;13.65;92.97
38806;BME280;25635;51.146;17.162;2022-09-09T04:06:37;99824.38;;;13.63;93.09
38806;BME280;25635;51.146;17.162;2022-09-09T04:09:03;99825.23;;;13.63;93.07
38806;BME280;25635;51.146;17.162;2022-09-09T04:11:30;99826.63;;;13.60;92.82
38806;BME280;25635;51.146;17.162;2022-09-09T04:13:56;99828.08;;;13.55;92.67
38806;BME280;25635;51.146;17.162;2022-09-09T04:16:22;99832.94;;;13.53;92.92
38806;BME280;25635;51.146;17.162;2022-09-09T04:18:48;99826.03;;;13.49;93.00
38806;BME280;25635;51.146;17.162;2022-09-09T04:21:15;99830.89;;;13.48;93.02
38806;BME280;25635;51.146;17.162;2022-09-09T04:23:43;99830.92;;;13.46;93.29
38806;BME280;25635;51.146;17.162;2022-09-09T04:26:10;99827.08;;;13.43;93.06
38806;BME280;25635;51.146;17.162;2022-09-09T04:28:36;99828.78;;;13.44;93.08
38806;BME280;25635;51.146;17.162;2022-09-09T04:31:13;99833.64;;;13.43;92.91
38806;BME280;25635;51.146;17.162;2022-09-09T04:33:37;99832.39;;;13.40;92.84
38806;BME280;25635;51.146;17.162;2022-09-09T04:36:05;99838.95;;;13.40;93.30
38806;BME280;25635;51.146;17.162;2022-09-09T04:38:32;99844.20;;;13.40;93.59
38806;BME280;25635;51.146;17.162;2022-09-09T04:40:58;99840.73;;;13.40;93.42
38806;BME280;25635;51.146;17.162;2022-09-09T04:43:24;99837.73;;;13.37;93.15
38806;BME280;25635;51.146;17.162;2022-09-09T04:45:52;99842.56;;;13.36;93.10
38806;BME280;25635;51.146;17.162;2022-09-09T04:48:19;99840.39;;;13.35;93.16
38806;BME280;25635;51.146;17.162;2022-09-09T04:50:56;99843.94;;;13.34;93.22
38806;BME280;25635;51.146;17.162;2022-09-09T04:53:23;99840.88;;;13.33;93.62
38806;BME280;25635;51.146;17.162;2022-09-09T04:55:52;99838.74;;;13.31;92.48
38806;BME280;25635;51.146;17.162;2022-09-09T04:58:21;99838.74;;;13.31;92.48
38806;BME280;25635;51.146;17.162;2022-09-09T05:00:49;99848.48;;;13.26;92.27
38806;BME280;25635;51.146;17.162;2022-09-09T05:03:17;99847.22;;;13.23;93.07
38806;BME280;25635;51.146;17.162;2022-09-09T05:05:44;99848.02;;;13.27;93.08
38806;BME280;25635;51.146;17.162;2022-09-09T05:08:10;99846.16;;;13.32;93.85
38806;BME280;25635;51.146;17.162;2022-09-09T05:10:38;99847.33;;;13.38;94.19
38806;BME280;25635;51.146;17.162;2022-09-09T05:13:05;99846.34;;;13.42;94.60
38806;BME280;25635;51.146;17.162;2022-09-09T05:15:32;99848.80;;;13.50;95.66
38806;BME280;25635;51.146;17.162;2022-09-09T05:17:59;99854.72;;;13.58;95.13
38806;BME280;25635;51.146;17.162;2022-09-09T05:20:27;99857.52;;;13.68;95.44
38806;BME280;25635;51.146;17.162;2022-09-09T05:22:54;99854.77;;;13.73;95.31
38806;BME280;25635;51.146;17.162;2022-09-09T05:25:22;99859.34;;;13.83;95.52
38806;BME280;25635;51.146;17.162;2022-09-09T05:27:51;99859.89;;;13.94;95.67
38806;BME280;25635;51.146;17.162;2022-09-09T05:30:20;99862.66;;;14.06;95.72
38806;BME280;25635;51.146;17.162;2022-09-09T05:32:47;99860.11;;;14.17;95.70
38806;BME280;25635;51.146;17.162;2022-09-09T05:35:14;99862.40;;;14.30;95.25
38806;BME280;25635;51.146;17.162;2022-09-09T05:37:41;99872.72;;;14.52;94.96
38806;BME280;25635;51.146;17.162;2022-09-09T05:40:07;99872.72;;;14.52;94.96
38806;BME280;25635;51.146;17.162;2022-09-09T05:42:35;99871.56;;;14.77;95.75
38806;BME280;25635;51.146;17.162;2022-09-09T05:45:01;99871.56;;;14.77;95.75
38806;BME280;25635;51.146;17.162;2022-09-09T05:47:27;99862.83;;;14.90;95.40
38806;BME280;25635;51.146;17.162;2022-09-09T05:49:54;99873.84;;;15.03;95.19
38806;BME280;25635;51.146;17.162;2022-09-09T05:52:21;99872.95;;;15.17;95.06
38806;BME280;25635;51.146;17.162;2022-09-09T05:54:49;99867.28;;;15.30;95.01
38806;BME280;25635;51.146;17.162;2022-09-09T05:57:15;99869.02;;;15.44;94.91
38806;BME280;25635;51.146;17.162;2022-09-09T05:59:41;99859.77;;;15.57;94.66
38806;BME280;25635;51.146;17.162;2022-09-09T06:02:08;99860.62;;;15.73;94.64
38806;BME280;25635;51.146;17.162;2022-09-09T06:04:35;99867.05;;;15.89;94.75
38806;BME280;25635;51.146;17.162;2022-09-09T06:07:01;99864.75;;;16.05;94.62
38806;BME280;25635;51.146;17.162;2022-09-09T06:09:28;99869.54;;;16.19;93.99
38806;BME280;25635;51.146;17.162;2022-09-09T06:11:56;99869.81;;;16.35;93.79
38806;BME280;25635;51.146;17.162;2022-09-09T06:14:23;99874.69;;;16.46;92.84
38806;BME280;25635;51.146;17.162;2022-09-09T06:16:51;99871.55;;;16.59;93.12
38806;BME280;25635;51.146;17.162;2022-09-09T06:19:17;99864.53;;;16.70;92.63
38806;BME280;25635;51.146;17.162;2022-09-09T06:21:44;99860.60;;;16.82;92.20
38806;BME280;25635;51.146;17.162;2022-09-09T06:24:10;99859.66;;;16.95;92.00
38806;BME280;25635;51.146;17.162;2022-09-09T06:26:39;99854.73;;;17.08;91.81
38806;BME280;25635;51.146;17.162;2022-09-09T06:29:07;99857.73;;;17.20;91.40
38806;BME280;25635;51.146;17.162;2022-09-09T06:31:35;99854.40;;;17.37;91.55
38806;BME280;25635;51.146;17.162;2022-09-09T06:34:05;99866.20;;;17.51;90.96
38806;BME280;25635;51.146;17.162;2022-09-09T06:36:35;99862.95;;;17.65;90.48
38806;BME280;25635;51.146;17.162;2022-09-09T06:39:03;99855.77;;;17.78;90.68
38806;BME280;25635;51.146;17.162;2022-09-09T06:41:31;99857.98;;;17.89;90.16
38806;BME280;25635;51.146;17.162;2022-09-09T06:43:58;99867.97;;;18.03;89.39
38806;BME280;25635;51.146;17.162;2022-09-09T06:46:28;99865.09;;;18.18;89.63
38806;BME280;25635;51.146;17.162;2022-09-09T06:48:58;99866.41;;;18.28;89.08
38806;BME280;25635;51.146;17.162;2022-09-09T06:51:28;99867.81;;;18.46;89.71
38806;BME280;25635;51.146;17.162;2022-09-09T06:53:58;99871.42;;;18.63;89.12
38806;BME280;25635;51.146;17.162;2022-09-09T06:56:33;99870.72;;;18.79;88.87
38806;BME280;25635;51.146;17.162;2022-09-09T06:59:03;99875.22;;;18.96;87.79
38806;BME280;25635;51.146;17.162;2022-09-09T07:01:33;99871.08;;;18.99;84.71
38806;BME280;25635;51.146;17.162;2022-09-09T07:04:02;99868.07;;;19.07;86.56
38806;BME280;25635;51.146;17.162;2022-09-09T07:06:32;99872.55;;;19.23;87.06
38806;BME280;25635;51.146;17.162;2022-09-09T07:09:05;99872.26;;;19.38;86.73
38806;BME280;25635;51.146;17.162;2022-09-09T07:11:43;99876.11;;;19.59;86.69
38806;BME280;25635;51.146;17.162;2022-09-09T07:14:11;99870.19;;;19.62;83.91
38806;BME280;25635;51.146;17.162;2022-09-09T07:16:44;99874.91;;;19.75;83.70
38806;BME280;25635;51.146;17.162;2022-09-09T07:19:12;99881.05;;;19.84;83.74
38806;BME280;25635;51.146;17.162;2022-09-09T07:21:43;99880.80;;;19.97;83.58
38806;BME280;25635;51.146;17.162;2022-09-09T07:24:10;99883.50;;;20.22;84.86
38806;BME280;25635;51.146;17.162;2022-09-09T07:26:38;99881.42;;;20.44;83.41
38806;BME280;25635;51.146;17.162;2022-09-09T07:29:05;99881.50;;;20.60;83.37
38806;BME280;25635;51.146;17.162;2022-09-09T07:31:34;99887.75;;;20.91;84.68
38806;BME280;25635;51.146;17.162;2022-09-09T07:34:03;99884.63;;;21.23;81.95
38806;BME280;25635;51.146;17.162;2022-09-09T07:36:36;99875.72;;;21.48;82.54
38806;BME280;25635;51.146;17.162;2022-09-09T07:39:07;99874.77;;;21.72;79.72
38806;BME280;25635;51.146;17.162;2022-09-09T07:41:41;99873.92;;;21.78;79.84
38806;BME280;25635;51.146;17.162;2022-09-09T07:44:15;99871.48;;;22.04;80.43
38806;BME280;25635;51.146;17.162;2022-09-09T07:46:45;99881.35;;;22.32;79.71
38806;BME280;25635;51.146;17.162;2022-09-09T07:49:11;99875.08;;;22.55;77.83
38806;BME280;25635;51.146;17.162;2022-09-09T07:51:40;99888.73;;;22.77;77.84
38806;BME280;25635;51.146;17.162;2022-09-09T07:54:10;99889.47;;;23.08;76.79
38806;BME280;25635;51.146;17.162;2022-09-09T07:56:40;99893.43;;;23.22;74.77
38806;BME280;25635;51.146;17.162;2022-09-09T07:59:07;99894.54;;;23.33;74.14
38806;BME280;25635;51.146;17.162;2022-09-09T08:01:37;99899.70;;;23.48;73.76
38806;BME280;25635;51.146;17.162;2022-09-09T08:04:14;99900.38;;;23.72;75.05
38806;BME280;25635;51.146;17.162;2022-09-09T08:06:54;99899.95;;;23.98;73.19
38806;BME280;25635;51.146;17.162;2022-09-09T08:09:23;99892.53;;;24.09;71.01
38806;BME280;25635;51.146;17.162;2022-09-09T08:11:52;99900.02;;;24.17;72.33
38806;BME280;25635;51.146;17.162;2022-09-09T08:14:19;99897.98;;;24.46;73.60
38806;BME280;25635;51.146;17.162;2022-09-09T08:32:29;99889.61;;;25.56;66.27
38806;BME280;25635;51.146;17.162;2022-09-09T08:34:55;99888.80;;;25.61;65.03
38806;BME280;25635;51.146;17.162;2022-09-09T08:37:21;99889.55;;;25.74;65.59
38806;BME280;25635;51.146;17.162;2022-09-09T08:39:47;99885.81;;;25.82;64.86
38806;BME280;25635;51.146;17.162;2022-09-09T08:42:27;99880.34;;;25.84;64.58
38806;BME280;25635;51.146;17.162;2022-09-09T08:45:00;99882.83;;;25.93;63.95
38806;BME280;25635;51.146;17.162;2022-09-09T09:10:37;99901.66;;;26.49;61.16
38806;BME280;25635;51.146;17.162;2022-09-09T09:13:17;99903.26;;;26.46;60.92
38806;BME280;25635;51.146;17.162;2022-09-09T09:16:00;99900.92;;;26.47;60.34
38806;BME280;25635;51.146;17.162;2022-09-09T09:18:41;99898.23;;;26.41;59.46
38806;BME280;25635;51.146;17.162;2022-09-09T09:21:12;99902.87;;;26.45;59.89
38806;BME280;25635;51.146;17.162;2022-09-09T09:23:58;99903.48;;;26.54;60.41
38806;BME280;25635;51.146;17.162;2022-09-09T09:26:30;99903.15;;;26.70;58.91
38806;BME280;25635;51.146;17.162;2022-09-09T09:28:58;99904.47;;;26.87;60.69
38806;BME280;25635;51.146;17.162;2022-09-09T09:31:27;99897.35;;;27.08;60.26
38806;BME280;25635;51.146;17.162;2022-09-09T09:33:55;99898.20;;;27.15;59.91
38806;BME280;25635;51.146;17.162;2022-09-09T09:36:25;99902.70;;;27.31;57.78
38806;BME280;25635;51.146;17.162;2022-09-09T09:39:03;99907.33;;;27.35;57.35
38806;BME280;25635;51.146;17.162;2022-09-09T09:41:34;99912.94;;;27.32;57.50
38806;BME280;25635;51.146;17.162;2022-09-09T09:44:02;99907.17;;;27.42;55.29
38806;BME280;25635;51.146;17.162;2022-09-09T09:54:26;99904.99;;;27.74;56.62
38806;BME280;25635;51.146;17.162;2022-09-09T09:56:50;99909.58;;;27.88;56.00
38806;BME280;25635;51.146;17.162;2022-09-09T09:59:21;99903.16;;;28.01;55.94
38806;BME280;25635;51.146;17.162;2022-09-09T10:01:50;99907.12;;;28.12;55.50
38806;BME280;25635;51.146;17.162;2022-09-09T10:04:19;99896.80;;;28.17;55.38
38806;BME280;25635;51.146;17.162;2022-09-09T10:06:49;99902.53;;;28.24;55.11
38806;BME280;25635;51.146;17.162;2022-09-09T10:09:30;99900.27;;;28.29;55.09
38806;BME280;25635;51.146;17.162;2022-09-09T10:12:24;99897.80;;;28.16;53.98
38806;BME280;25635;51.146;17.162;2022-09-09T10:18:08;99908.73;;;27.82;54.42
38806;BME280;25635;51.146;17.162;2022-09-09T10:20:50;99901.64;;;27.87;53.82
38806;BME280;25635;51.146;17.162;2022-09-09T10:32:40;99907.73;;;28.10;53.11
38806;BME280;25635;51.146;17.162;2022-09-09T10:35:29;99907.53;;;28.23;51.81
38806;BME280;25635;51.146;17.162;2022-09-09T10:38:08;99905.03;;;28.31;53.01
38806;BME280;25635;51.146;17.162;2022-09-09T10:40:40;99903.37;;;28.40;51.13
38806;BME280;25635;51.146;17.162;2022-09-09T10:43:19;99899.31;;;28.30;51.84
38806;BME280;25635;51.146;17.162;2022-09-09T10:52:13;99894.33;;;28.72;50.11
38806;BME280;25635;51.146;17.162;2022-09-09T10:55:18;99894.53;;;28.64;50.30
38806;BME280;25635;51.146;17.162;2022-09-09T10:57:48;99892.41;;;28.53;49.83
38806;BME280;25635;51.146;17.162;2022-09-09T11:00:20;99891.84;;;28.64;50.25
38806;BME280;25635;51.146;17.162;2022-09-09T11:02:55;99883.73;;;28.70;50.57
38806;BME280;25635;51.146;17.162;2022-09-09T11:05:31;99890.80;;;28.71;50.23
38806;BME280;25635;51.146;17.162;2022-09-09T11:08:34;99886.45;;;28.64;49.63
38806;BME280;25635;51.146;17.162;2022-09-09T11:13:42;99886.41;;;28.95;50.42
38806;BME280;25635;51.146;17.162;2022-09-09T11:19:41;99887.34;;;29.25;50.30
38806;BME280;25635;51.146;17.162;2022-09-09T11:24:54;99890.89;;;29.55;50.55
38806;BME280;25635;51.146;17.162;2022-09-09T11:27:40;99894.48;;;29.75;49.59
38806;BME280;25635;51.146;17.162;2022-09-09T11:32:37;99893.91;;;29.81;49.32
38806;BME280;25635;51.146;17.162;2022-09-09T11:37:04;99894.84;;;29.99;48.88
38806;BME280;25635;51.146;17.162;2022-09-09T11:39:37;99896.55;;;30.10;48.42
38806;BME280;25635;51.146;17.162;2022-09-09T11:44:44;99888.92;;;30.19;46.49
38806;BME280;25635;51.146;17.162;2022-09-09T11:47:29;99887.88;;;30.16;47.59
38806;BME280;25635;51.146;17.162;2022-09-09T11:52:48;99878.66;;;30.42;47.40
38806;BME280;25635;51.146;17.162;2022-09-09T11:55:24;99882.08;;;30.58;47.38
38806;BME280;25635;51.146;17.162;2022-09-09T11:57:59;99890.36;;;30.75;46.93
38806;BME280;25635;51.146;17.162;2022-09-09T12:18:00;99881.73;;;30.71;44.86
38806;BME280;25635;51.146;17.162;2022-09-09T12:20:34;99884.02;;;30.66;44.54
38806;BME280;25635;51.146;17.162;2022-09-09T12:23:32;99882.92;;;30.59;44.60
38806;BME280;25635;51.146;17.162;2022-09-09T12:28:54;99876.47;;;30.42;44.89
38806;BME280;25635;51.146;17.162;2022-09-09T12:37:24;99867.93;;;29.89;45.33
38806;BME280;25635;51.146;17.162;2022-09-09T12:39:53;99869.85;;;29.83;45.64
38806;BME280;25635;51.146;17.162;2022-09-09T12:42:20;99873.56;;;29.73;45.04
38806;BME280;25635;51.146;17.162;2022-09-09T12:44:53;99866.92;;;29.61;45.10
38806;BME280;25635;51.146;17.162;2022-09-09T12:47:36;99872.34;;;29.52;44.63
38806;BME280;25635;51.146;17.162;2022-09-09T12:50:18;99871.20;;;29.35;45.04
38806;BME280;25635;51.146;17.162;2022-09-09T12:52:49;99868.44;;;29.30;45.52
38806;BME280;25635;51.146;17.162;2022-09-09T12:55:19;99888.19;;;29.25;45.50
38806;BME280;25635;51.146;17.162;2022-09-09T12:57:48;99891.02;;;29.14;45.41
38806;BME280;25635;51.146;17.162;2022-09-09T13:00:23;99889.91;;;29.01;45.62
38806;BME280;25635;51.146;17.162;2022-09-09T13:02:53;99891.72;;;28.91;45.50
38806;BME280;25635;51.146;17.162;2022-09-09T13:05:36;99881.13;;;28.84;46.01
38806;BME280;25635;51.146;17.162;2022-09-09T13:08:06;99865.06;;;28.78;46.20
38806;BME280;25635;51.146;17.162;2022-09-09T13:10:49;99870.98;;;28.72;46.11
38806;BME280;25635;51.146;17.162;2022-09-09T13:13:29;99877.72;;;28.72;46.15
38806;BME280;25635;51.146;17.162;2022-09-09T13:18:51;99870.57;;;28.61;46.42
38806;BME280;25635;51.146;17.162;2022-09-09T13:21:18;99870.95;;;28.62;46.07
38806;BME280;25635;51.146;17.162;2022-09-09T13:23:49;99875.39;;;28.58;45.32
38806;BME280;25635;51.146;17.162;2022-09-09T13:26:23;99862.88;;;28.47;44.88
38806;BME280;25635;51.146;17.162;2022-09-09T13:28:53;99861.26;;;28.35;45.37
38806;BME280;25635;51.146;17.162;2022-09-09T13:31:28;99853.53;;;28.36;45.56
38806;BME280;25635;51.146;17.162;2022-09-09T13:33:57;99849.09;;;28.40;45.58
38806;BME280;25635;51.146;17.162;2022-09-09T13:36:32;99847.74;;;28.40;45.29
38806;BME280;25635;51.146;17.162;2022-09-09T13:39:02;99850.13;;;28.34;44.85
38806;BME280;25635;51.146;17.162;2022-09-09T13:41:42;99852.59;;;28.31;46.08
38806;BME280;25635;51.146;17.162;2022-09-09T13:44:27;99850.75;;;28.32;46.16
38806;BME280;25635;51.146;17.162;2022-09-09T13:54:42;99841.04;;;28.25;45.81
38806;BME280;25635;51.146;17.162;2022-09-09T13:57:25;99830.57;;;28.22;44.99
38806;BME280;25635;51.146;17.162;2022-09-09T13:59:51;99829.26;;;28.16;45.74
38806;BME280;25635;51.146;17.162;2022-09-09T14:02:20;99829.22;;;28.22;45.90
38806;BME280;25635;51.146;17.162;2022-09-09T14:04:48;99831.91;;;28.22;45.78
38806;BME280;25635;51.146;17.162;2022-09-09T14:07:17;99830.20;;;28.21;45.60
38806;BME280;25635;51.146;17.162;2022-09-09T14:09:44;99827.41;;;28.17;45.19
38806;BME280;25635;51.146;17.162;2022-09-09T14:12:13;99829.05;;;28.14;44.75
38806;BME280;25635;51.146;17.162;2022-09-09T14:14:41;99829.76;;;28.16;45.20
38806;BME280;25635;51.146;17.162;2022-09-09T14:17:08;99828.55;;;28.14;45.23
38806;BME280;25635;51.146;17.162;2022-09-09T14:19:35;99831.64;;;28.09;45.48
38806;BME280;25635;51.146;17.162;2022-09-09T14:22:02;99833.86;;;28.04;45.74
38806;BME280;25635;51.146;17.162;2022-09-09T14:24:29;99824.14;;;27.98;45.77
38806;BME280;25635;51.146;17.162;2022-09-09T14:26:56;99830.88;;;27.92;45.35
38806;BME280;25635;51.146;17.162;2022-09-09T14:29:22;99831.29;;;27.87;45.57
38806;BME280;25635;51.146;17.162;2022-09-09T15:03:32;99814.03;;;26.72;47.45
38806;BME280;25635;51.146;17.162;2022-09-09T15:06:13;99809.78;;;26.64;47.37
38806;BME280;25635;51.146;17.162;2022-09-09T15:08:44;99809.02;;;26.56;47.50
38806;BME280;25635;51.146;17.162;2022-09-09T15:11:12;99804.30;;;26.48;47.38
38806;BME280;25635;51.146;17.162;2022-09-09T15:13:40;99807.23;;;26.40;47.68
38806;BME280;25635;51.146;17.162;2022-09-09T15:18:59;99801.77;;;26.19;46.83
38806;BME280;25635;51.146;17.162;2022-09-09T15:21:29;99798.32;;;26.00;47.89
38806;BME280;25635;51.146;17.162;2022-09-09T15:23:58;99796.11;;;25.88;47.88
38806;BME280;25635;51.146;17.162;2022-09-09T15:26:25;99794.49;;;25.74;47.76
38806;BME280;25635;51.146;17.162;2022-09-09T15:28:53;99793.86;;;25.59;47.68
38806;BME280;25635;51.146;17.162;2022-09-09T15:34:15;99789.88;;;25.30;48.26
38806;BME280;25635;51.146;17.162;2022-09-09T15:36:44;99790.88;;;25.10;48.64
38806;BME280;25635;51.146;17.162;2022-09-09T15:39:14;99793.23;;;24.96;48.86
38806;BME280;25635;51.146;17.162;2022-09-09T15:41:43;99794.63;;;24.83;49.32
38806;BME280;25635;51.146;17.162;2022-09-09T15:44:11;99797.97;;;24.74;49.55
38806;BME280;25635;51.146;17.162;2022-09-09T15:51:47;99805.14;;;24.42;50.18
38806;BME280;25635;51.146;17.162;2022-09-09T15:54:19;99814.42;;;24.31;50.19
38806;BME280;25635;51.146;17.162;2022-09-09T15:56:52;99818.31;;;24.20;50.64
38806;BME280;25635;51.146;17.162;2022-09-09T15:59:26;99817.13;;;24.05;50.86
38806;BME280;25635;51.146;17.162;2022-09-09T16:02:13;99812.25;;;23.92;51.03
38806;BME280;25635;51.146;17.162;2022-09-09T16:04:39;99809.22;;;23.78;51.30
38806;BME280;25635;51.146;17.162;2022-09-09T16:07:05;99805.53;;;23.66;51.50
38806;BME280;25635;51.146;17.162;2022-09-09T16:09:33;99809.70;;;23.58;51.74
38806;BME280;25635;51.146;17.162;2022-09-09T16:12:02;99814.70;;;23.50;52.04
38806;BME280;25635;51.146;17.162;2022-09-09T16:14:33;99814.72;;;23.42;52.41
38806;BME280;25635;51.146;17.162;2022-09-09T16:24:46;99816.30;;;23.12;53.14
38806;BME280;25635;51.146;17.162;2022-09-09T16:27:12;99814.04;;;23.06;53.45
38806;BME280;25635;51.146;17.162;2022-09-09T16:29:39;99821.56;;;22.99;53.83
38806;BME280;25635;51.146;17.162;2022-09-09T16:32:05;99826.33;;;22.94;53.92
38806;BME280;25635;51.146;17.162;2022-09-09T16:34:32;99826.63;;;22.90;54.06
38806;BME280;25635;51.146;17.162;2022-09-09T16:36:59;99824.36;;;22.83;54.16
38806;BME280;25635;51.146;17.162;2022-09-09T16:39:25;99818.30;;;22.74;54.21
38806;BME280;25635;51.146;17.162;2022-09-09T16:41:51;99810.70;;;22.68;54.56
38806;BME280;25635;51.146;17.162;2022-09-09T16:44:18;99814.12;;;22.63;55.09
38806;BME280;25635;51.146;17.162;2022-09-09T16:47:05;99810.55;;;22.57;55.05
38806;BME280;25635;51.146;17.162;2022-09-09T16:49:31;99812.45;;;22.48;55.37
38806;BME280;25635;51.146;17.162;2022-09-09T16:51:59;99814.73;;;22.39;55.73
38806;BME280;25635;51.146;17.162;2022-09-09T16:54:26;99818.76;;;22.32;55.86
38806;BME280;25635;51.146;17.162;2022-09-09T16:56:52;99820.47;;;22.26;56.18
38806;BME280;25635;51.146;17.162;2022-09-09T16:59:20;99816.91;;;22.18;56.53